Terminal Aerodrome Forecast
Issued by NWS Amarillo, TX

Current Version | Previous Version | Text Only | Print | Product List | Glossary Off
Versions: 1 2 3 4 5 6 7 8 9 10 11 12 13 14 15

000
FTUS44 KAMA 030500
TAFDHT
TAF
KDHT 030520Z 0306/0406 18012KT P6SM SKC
     FM031100 23009KT P6SM SKC
     FM031700 19014G21KT P6SM SKC
     FM040100 17012KT P6SM SKC=

USA.gov is the U.S. government's official web portal to all federal, state and local government web resources and services.